Ceylon, MN (56121)

9:39 PM CST on February 10, 2016 (GMT -0600)
Estherville Municipal | | Change Station
CLOSE
Current Station
Airport
Location: Estherville,
Elevation: 1316 ft
Nearby Weather Stations

Elev 1316 ft 43.40 °N, 94.75 °W | Updated 47 minutes ago

Overcast
Overcast
10 °F
Feels Like -2 °F
N
8
Wind Variable Wind from North

Today
High -- | Low -- °F
--% Chance of Precip.
Yesterday
High -- | Low -- °F
Precip. -- in
Pressure 30.28 in
Visibility 10.0 miles
Clouds Overcast 4800 ft
Windchill -2 °F
Dew Point 3 °F
Humidity 73%
Rainfall 0.00 in
Snow Depth Not available.
7:24 AM 5:41 PM
Waxing Crescent, 9% visible
METAR KEST 110252Z AUTO 01007KT 10SM OVC048 M12/M16 A3019 RMK AO2 SLP253 T11221161 51029
Pressure 30.28 in
Visibility 10.0 miles
Clouds Overcast 4800 ft
Windchill -2 °F
Dew Point 3 °F
Humidity 73%
Rainfall 0.00 in
Snow Depth Not available.
7:24 AM 5:41 PM
Waxing Crescent, 9% visible
METAR KEST 110252Z AUTO 01007KT 10SM OVC048 M12/M16 A3019 RMK AO2 SLP253 T11221161 51029

10-Day Weather Forecast

Almanac

Astronomy

Feb. 10, 2016 Rise Set
Actual Time
Civil Twilight
Nautical Twilight
Astronomical Twilight
Moon
Length of Visible Light
Length of Day
Tomorrow will be .
, % of the Moon is Illuminated

Today's Extremes

State Highs State Lows

Community

WunderPhotos

Upload Photos

1,891,994 photos uploaded!

WunderBlog® & News

Nearby

Air Quality

  Air Quality AQ Index Pollutant
Not available.

Snow Depth

Station Depth Elevation

Earthquake Activity

City Distance Mag. Time & Date
Minimum magnitude displayed is 2.5.

Coastal Water Temperatures

Place Temperature

Stations

Nearby Weather Stations

Station Location Temp. Windchill Dew Point Humidity Wind Precip. Elev Updated Type
                   

Watches & Warnings

There are currently no watches in effect.